createdAt,value
2022-07-29T00:00:26.008Z,14.50
2022-07-29T00:05:27.793Z,14.40
2022-07-29T00:10:29.721Z,14.20
2022-07-29T00:15:31.548Z,14.10
2022-07-29T00:20:33.420Z,14.00
2022-07-29T00:25:35.304Z,13.90
2022-07-29T00:30:37.385Z,13.80
2022-07-29T00:35:45.309Z,13.70
2022-07-29T00:40:47.799Z,13.60
2022-07-29T00:45:49.800Z,13.50
2022-07-29T00:50:51.920Z,13.40
2022-07-29T00:55:56.015Z,13.40
2022-07-29T01:00:59.264Z,13.30
2022-07-29T01:06:01.404Z,13.30
2022-07-29T01:11:03.916Z,13.30
2022-07-29T01:16:16.288Z,13.50
2022-07-29T01:21:52.916Z,13.50
2022-07-29T01:27:15.716Z,13.40
2022-07-29T01:32:28.221Z,13.50
2022-07-29T01:37:55.714Z,13.50
2022-07-29T01:43:00.308Z,13.50
2022-07-29T01:48:10.841Z,13.30
2022-07-29T01:53:16.496Z,13.10
2022-07-29T01:58:20.371Z,12.90
2022-07-29T02:03:22.871Z,12.70
2022-07-29T02:08:26.113Z,12.50
2022-07-29T02:13:29.892Z,12.30
2022-07-29T02:18:31.999Z,12.30
2022-07-29T02:23:50.267Z,12.20
2022-07-29T02:28:56.136Z,12.10
2022-07-29T02:33:59.437Z,12.10
2022-07-29T02:39:02.784Z,12.10
2022-07-29T02:44:20.220Z,12.10
2022-07-29T02:49:22.327Z,11.90
2022-07-29T02:54:34.754Z,11.90
2022-07-29T02:59:39.122Z,12.00
2022-07-29T03:04:42.888Z,12.00
2022-07-29T03:09:46.327Z,12.00
2022-07-29T03:14:49.722Z,11.90
2022-07-29T03:19:51.806Z,12.10
2022-07-29T03:24:53.647Z,12.30
2022-07-29T03:29:55.439Z,12.40
2022-07-29T03:34:58.216Z,12.60
2022-07-29T03:40:04.140Z,12.90
2022-07-29T03:45:12.937Z,13.40
2022-07-29T03:50:16.512Z,13.90
2022-07-29T03:55:18.617Z,14.50
2022-07-29T04:00:20.583Z,16.00
2022-07-29T04:05:22.583Z,16.70
2022-07-29T04:10:30.143Z,16.00
2022-07-29T04:15:33.692Z,16.00
2022-07-29T04:20:35.567Z,16.20
2022-07-29T04:25:41.469Z,18.30
2022-07-29T04:30:43.249Z,18.40
2022-07-29T04:35:48.195Z,18.10
2022-07-29T04:40:52.447Z,16.80
2022-07-29T04:45:54.507Z,15.90
2022-07-29T04:50:57.247Z,15.70
2022-07-29T04:55:59.316Z,15.70
2022-07-29T05:01:01.172Z,17.60
2022-07-29T05:06:03.194Z,17.80
2022-07-29T05:11:12.230Z,17.50
2022-07-29T05:16:15.233Z,17.00
2022-07-29T05:21:17.110Z,19.00
2022-07-29T05:26:19.121Z,19.20
2022-07-29T05:31:21.207Z,18.80
2022-07-29T05:36:23.055Z,18.30
2022-07-29T05:41:24.839Z,18.50
2022-07-29T05:46:27.073Z,18.80
2022-07-29T05:51:28.912Z,19.60
2022-07-29T05:56:30.749Z,21.70
2022-07-29T06:01:32.708Z,21.30
2022-07-29T06:06:35.651Z,24.00
2022-07-29T06:11:37.446Z,30.20
2022-07-29T06:16:39.296Z,30.30
2022-07-29T06:21:44.892Z,27.90
2022-07-29T06:26:46.694Z,25.20
2022-07-29T06:31:48.509Z,22.30
2022-07-29T06:36:50.775Z,20.80
2022-07-29T06:41:52.628Z,19.70
2022-07-29T06:46:55.752Z,19.50
2022-07-29T06:51:57.589Z,21.00
2022-07-29T06:57:00.148Z,26.20
2022-07-29T07:02:01.994Z,26.50
2022-07-29T07:07:03.939Z,27.80
2022-07-29T07:12:06.089Z,31.70
2022-07-29T07:17:08.886Z,34.20
2022-07-29T07:22:10.730Z,34.00
2022-07-29T07:27:12.656Z,35.90
2022-07-29T07:32:17.193Z,30.10
2022-07-29T07:37:21.471Z,25.50
2022-07-29T07:42:23.639Z,26.60
2022-07-29T07:47:25.710Z,28.00
2022-07-29T07:52:30.008Z,26.80
2022-07-29T07:57:32.169Z,29.10
2022-07-29T08:02:34.122Z,26.10
2022-07-29T08:07:35.999Z,23.90
2022-07-29T08:12:38.465Z,22.30
2022-07-29T08:17:40.249Z,28.70
2022-07-29T08:22:42.022Z,32.20
2022-07-29T08:27:44.412Z,34.80
2022-07-29T08:32:54.811Z,29.60
2022-07-29T08:37:57.870Z,28.50
2022-07-29T08:43:06.546Z,26.40
2022-07-29T08:48:08.578Z,25.90
2022-07-29T08:53:13.691Z,29.20
2022-07-29T08:58:16.412Z,28.10
2022-07-29T09:03:25.096Z,31.70
2022-07-29T09:08:28.212Z,33.80
2022-07-29T09:13:30.114Z,29.70
2022-07-29T09:18:37.267Z,31.30
2022-07-29T09:23:40.693Z,32.70
2022-07-29T09:28:43.351Z,29.50
2022-07-29T09:33:45.164Z,29.10
2022-07-29T09:39:01.824Z,28.60
2022-07-29T09:44:03.912Z,29.00
2022-07-29T09:49:13.950Z,30.30
2022-07-29T09:54:27.311Z,29.00
2022-07-29T09:59:29.254Z,26.70
2022-07-29T10:04:42.763Z,29.40
2022-07-29T10:09:55.369Z,30.90
2022-07-29T10:14:57.256Z,27.50
2022-07-29T10:19:59.117Z,28.10
2022-07-29T10:25:01.125Z,29.50
2022-07-29T10:30:05.502Z,28.30
2022-07-29T10:35:29.051Z,26.90
2022-07-29T10:40:52.011Z,25.10
2022-07-29T10:46:01.273Z,24.50
2022-07-29T10:51:05.071Z,22.90
2022-07-29T10:56:27.700Z,22.50
2022-07-29T11:01:37.062Z,22.20
2022-07-29T11:06:59.619Z,21.60
2022-07-29T11:12:37.807Z,21.30
2022-07-29T11:17:53.679Z,21.80
2022-07-29T11:22:55.519Z,21.90
2022-07-29T11:28:14.534Z,21.70
2022-07-29T11:33:54.478Z,21.80
2022-07-29T11:39:18.366Z,21.90
2022-07-29T11:44:59.279Z,22.10
2022-07-29T11:50:12.529Z,21.90
2022-07-29T11:55:17.757Z,21.30
2022-07-29T12:00:31.123Z,20.90
2022-07-29T12:05:37.596Z,21.20
2022-07-29T12:10:40.615Z,21.60
2022-07-29T12:15:52.495Z,21.80
2022-07-29T12:21:05.316Z,21.80
2022-07-29T12:26:10.986Z,21.80
2022-07-29T12:31:43.379Z,21.40
2022-07-29T12:36:45.932Z,21.50
2022-07-29T12:41:47.823Z,21.30
2022-07-29T12:47:03.596Z,21.40
2022-07-29T12:52:28.830Z,21.50
2022-07-29T12:57:30.999Z,21.60
2022-07-29T13:02:33.020Z,21.80
2022-07-29T13:07:54.073Z,21.50
2022-07-29T13:13:10.592Z,21.20
2022-07-29T13:18:32.043Z,21.30
2022-07-29T13:23:38.445Z,21.50
2022-07-29T13:28:40.979Z,21.90
2022-07-29T13:33:46.166Z,22.20
2022-07-29T13:38:47.917Z,21.90
2022-07-29T13:43:50.125Z,21.60
2022-07-29T13:48:52.482Z,21.40
2022-07-29T13:53:54.303Z,21.60
2022-07-29T13:58:56.348Z,21.70
2022-07-29T14:03:58.283Z,21.60
2022-07-29T14:09:00.221Z,21.50
2022-07-29T14:14:02.295Z,21.10
2022-07-29T14:19:04.430Z,20.60
2022-07-29T14:24:17.657Z,20.60
2022-07-29T14:29:20.035Z,20.90
2022-07-29T14:34:21.936Z,21.00
2022-07-29T14:39:26.899Z,20.80
2022-07-29T14:44:33.824Z,20.40
2022-07-29T14:49:36.384Z,20.30
2022-07-29T14:54:39.059Z,20.50
2022-07-29T14:59:41.956Z,20.30
2022-07-29T15:04:44.819Z,20.20
2022-07-29T15:09:49.411Z,20.00
2022-07-29T15:14:52.004Z,20.20
2022-07-29T15:19:54.019Z,20.10
2022-07-29T15:24:55.793Z,19.90
2022-07-29T15:29:58.020Z,19.80
2022-07-29T15:34:59.796Z,19.70
2022-07-29T15:40:01.670Z,19.80
2022-07-29T15:45:04.592Z,19.70
2022-07-29T15:50:07.671Z,19.70
2022-07-29T15:55:10.195Z,19.60
2022-07-29T16:00:12.523Z,19.50
2022-07-29T16:05:14.322Z,19.50
2022-07-29T16:10:16.205Z,19.50
2022-07-29T16:15:18.107Z,19.50
2022-07-29T16:20:20.976Z,19.30
2022-07-29T16:25:38.474Z,19.20
2022-07-29T16:30:45.747Z,19.10
2022-07-29T16:35:47.512Z,19.00
2022-07-29T16:40:49.509Z,18.80
2022-07-29T16:45:51.364Z,18.70
2022-07-29T16:50:53.192Z,18.60
2022-07-29T16:55:55.041Z,18.60
2022-07-29T17:00:57.031Z,18.50
2022-07-29T17:05:58.959Z,18.40
2022-07-29T17:11:00.788Z,18.30
2022-07-29T17:16:02.665Z,18.30
2022-07-29T17:21:04.545Z,18.20
2022-07-29T17:26:06.332Z,18.10
2022-07-29T17:31:08.637Z,18.10
2022-07-29T17:36:26.863Z,18.00
2022-07-29T17:41:28.675Z,18.00
2022-07-29T17:46:30.651Z,17.80
2022-07-29T17:51:32.998Z,17.80
2022-07-29T17:56:34.846Z,17.60
2022-07-29T18:01:39.060Z,17.60
2022-07-29T18:06:40.895Z,17.50
2022-07-29T18:11:44.534Z,17.50
2022-07-29T18:16:47.712Z,17.30
2022-07-29T18:21:54.697Z,17.10
2022-07-29T18:26:57.369Z,16.90
2022-07-29T18:31:59.935Z,16.80
2022-07-29T18:37:01.971Z,16.60
2022-07-29T18:42:04.473Z,16.40
2022-07-29T18:47:06.398Z,16.30
2022-07-29T18:52:08.484Z,16.20
2022-07-29T18:57:53.745Z,16.10
2022-07-29T19:02:32.284Z,15.90
2022-07-29T19:07:34.506Z,15.80
2022-07-29T19:12:37.260Z,15.70
2022-07-29T19:17:39.367Z,15.50
2022-07-29T19:22:41.130Z,15.40
2022-07-29T19:27:42.938Z,15.20
2022-07-29T19:32:44.736Z,15.00
2022-07-29T19:37:46.495Z,14.80
2022-07-29T19:42:51.106Z,14.70
2022-07-29T19:47:57.689Z,14.50
2022-07-29T19:53:02.672Z,14.40
2022-07-29T19:58:06.000Z,14.30
2022-07-29T20:03:10.415Z,14.40
2022-07-29T20:08:12.283Z,14.30
2022-07-29T20:13:14.152Z,14.20
2022-07-29T20:18:16.133Z,14.40
2022-07-29T20:23:19.372Z,14.40
2022-07-29T20:28:21.231Z,14.40
2022-07-29T20:33:23.022Z,14.20
2022-07-29T20:38:24.807Z,14.00
2022-07-29T20:43:27.915Z,13.90
2022-07-29T20:48:29.668Z,13.90
2022-07-29T20:53:32.789Z,13.80
2022-07-29T20:58:36.132Z,13.60
2022-07-29T21:03:37.966Z,13.50
2022-07-29T21:08:39.844Z,13.20
2022-07-29T21:13:41.880Z,13.10
2022-07-29T21:18:46.490Z,13.00
2022-07-29T21:23:48.314Z,12.90
2022-07-29T21:28:50.508Z,12.80
2022-07-29T21:33:52.512Z,12.80
2022-07-29T21:38:54.275Z,12.80
2022-07-29T21:43:58.231Z,12.60
2022-07-29T21:49:01.398Z,12.60
2022-07-29T21:54:04.126Z,12.70
2022-07-29T21:59:05.932Z,12.70
2022-07-29T22:04:11.685Z,12.60
2022-07-29T22:09:13.579Z,12.50
2022-07-29T22:14:17.685Z,12.50
2022-07-29T22:19:19.545Z,12.40
2022-07-29T22:24:21.356Z,12.30
2022-07-29T22:29:23.132Z,12.20
2022-07-29T22:34:25.036Z,12.20
2022-07-29T22:39:38.988Z,12.20
2022-07-29T22:44:40.844Z,12.20
2022-07-29T22:49:42.820Z,12.10
2022-07-29T22:54:44.580Z,12.10
2022-07-29T22:59:46.424Z,12.00
2022-07-29T23:04:48.192Z,12.00
2022-07-29T23:09:50.211Z,11.70
2022-07-29T23:14:51.976Z,11.70
2022-07-29T23:19:53.748Z,11.60
2022-07-29T23:24:55.537Z,11.50
2022-07-29T23:29:57.340Z,11.40
2022-07-29T23:34:59.184Z,11.30
2022-07-29T23:40:00.981Z,11.30
2022-07-29T23:45:02.959Z,11.30
2022-07-29T23:50:06.171Z,11.30
2022-07-29T23:55:38.798Z,11.20
